Terminal Aerodrome Forecast
Issued by NWS

Home | Current Version | Previous Version | Text Only | Print | Product List | Glossary On
Versions: 1 2 3 4 5 6 7 8 9 10 11 12 13 14 15 16 17 18 19 20
000
FTUS44 KTSA 160700 AAA
TAFMLC
TAF AMD
KMLC 160725Z 1607/1706 00000KT 4SM BR SCT120
      TEMPO 1608/1612 2SM BR
     FM161200 02002KT P6SM OVC015
     FM161800 35002KT P6SM BKN050
     FM162100 31005KT P6SM BKN100=

USA.gov is the U.S. government's official web portal to all federal, state and local government web resources and services.